Time;durP1;ratioP1;P1;durP2;ratioP2;P2;SDS_P1;SDS_P2;PMS_P1;PMS_P2;Temp;Humidity;BMP_temperature;BMP_pressure;BME280_temperature;BME280_humidity;BME280_pressure;Samples;Min_cycle;Max_cycle;Signal;HPM_P1;HPM_P2
2023/03/22 00:00:48;;;;;;;14.77;8.02;;;11.30;99.90;;;;;;5002613;28;20156;-65
2023/03/22 00:03:15;;;;;;;11.32;7.20;;;11.20;99.90;;;;;;4999393;28;20060;-65
2023/03/22 00:05:41;;;;;;;11.00;7.25;;;11.20;99.90;;;;;;5012369;28;20046;-65
2023/03/22 00:08:07;;;;;;;10.57;6.28;;;11.20;99.90;;;;;;5014598;28;20029;-65
2023/03/22 00:10:36;;;;;;;9.05;6.95;;;11.20;99.90;;;;;;5006369;28;20030;-64
2023/03/22 00:13:02;;;;;;;11.77;7.70;;;11.20;99.90;;;;;;5005996;28;20132;-65
2023/03/22 00:15:28;;;;;;;13.23;8.80;;;11.20;99.90;;;;;;5018129;28;20125;-65
2023/03/22 00:17:56;;;;;;;12.30;8.63;;;11.30;99.90;;;;;;5010724;28;20026;-65
2023/03/22 00:20:22;;;;;;;13.25;8.82;;;11.30;99.90;;;;;;5003170;28;20041;-65
2023/03/22 00:22:49;;;;;;;11.75;8.30;;;11.30;99.90;;;;;;5009238;28;20034;-65
2023/03/22 00:25:15;;;;;;;12.63;7.47;;;11.20;99.90;;;;;;5008261;28;20034;-65
2023/03/22 00:27:41;;;;;;;10.95;7.18;;;11.20;99.90;;;;;;5001948;28;20037;-65
2023/03/22 00:30:09;;;;;;;9.70;6.88;;;11.20;99.90;;;;;;5006111;28;20125;-65
2023/03/22 00:32:35;;;;;;;10.25;6.60;;;11.20;99.90;;;;;;5004110;28;20844;-65
2023/03/22 00:35:02;;;;;;;13.30;8.48;;;11.20;99.90;;;;;;5003409;28;20034;-65
2023/03/22 00:37:32;;;;;;;13.05;7.97;;;11.10;99.90;;;;;;5004045;28;20049;-65
2023/03/22 00:39:59;;;;;;;11.20;7.55;;;11.10;99.90;;;;;;5000596;28;20034;-65
2023/03/22 00:42:25;;;;;;;11.13;7.40;;;11.10;99.90;;;;;;5006671;28;20057;-65
2023/03/22 00:44:51;;;;;;;11.73;7.57;;;11.10;99.90;;;;;;5005005;28;20030;-65
2023/03/22 00:47:17;;;;;;;11.18;7.72;;;11.10;99.90;;;;;;5000984;28;20041;-65
2023/03/22 00:49:43;;;;;;;11.93;8.00;;;11.20;99.90;;;;;;5004561;28;20042;-65
2023/03/22 00:52:09;;;;;;;12.15;7.93;;;11.20;99.90;;;;;;5001154;28;20049;-65
2023/03/22 00:54:35;;;;;;;12.43;7.78;;;11.20;99.90;;;;;;5000360;28;20666;-65
2023/03/22 00:57:01;;;;;;;15.85;9.50;;;11.20;99.90;;;;;;5007714;28;20200;-65
2023/03/22 00:59:27;;;;;;;12.43;8.75;;;11.30;99.90;;;;;;5005430;28;20033;-65
2023/03/22 01:01:55;;;;;;;14.10;8.80;;;11.30;99.90;;;;;;5005084;28;20052;-65
2023/03/22 01:04:24;;;;;;;13.77;9.63;;;11.30;99.90;;;;;;5003828;28;20064;-65
2023/03/22 01:06:58;;;;;;;19.55;10.88;;;11.30;99.90;;;;;;4995259;28;20107;-65
2023/03/22 01:09:29;;;;;;;18.35;11.13;;;11.40;99.90;;;;;;5005013;28;20042;-65
2023/03/22 01:11:57;;;;;;;18.98;10.38;;;11.40;99.90;;;;;;5001461;28;20025;-64
2023/03/22 01:14:24;;;;;;;17.10;10.95;;;11.40;99.90;;;;;;5004416;28;20852;-65
2023/03/22 01:16:56;;;;;;;17.05;11.48;;;11.40;99.90;;;;;;5004207;28;20025;-65
2023/03/22 01:19:26;;;;;;;14.90;10.07;;;11.40;99.90;;;;;;5001338;28;20049;-65
2023/03/22 01:21:52;;;;;;;19.90;11.02;;;11.50;99.90;;;;;;5005205;28;20029;-65
2023/03/22 01:24:18;;;;;;;15.70;10.60;;;11.40;99.90;;;;;;5004251;28;20041;-65
2023/03/22 01:26:44;;;;;;;14.65;10.45;;;11.30;99.90;;;;;;5001308;28;20036;-65
2023/03/22 01:29:10;;;;;;;13.27;8.88;;;11.30;99.90;;;;;;5001980;28;20102;-65
2023/03/22 01:31:36;;;;;;;17.80;10.35;;;11.30;99.90;;;;;;5005622;28;20117;-65
2023/03/22 01:34:02;;;;;;;17.33;11.35;;;11.20;99.90;;;;;;5005808;28;20030;-65
2023/03/22 01:36:28;;;;;;;19.02;11.65;;;11.20;99.90;;;;;;5009632;28;20032;-65
2023/03/22 01:38:54;;;;;;;20.02;12.00;;;11.10;99.90;;;;;;5009416;28;20125;-65
2023/03/22 01:41:21;;;;;;;20.23;11.50;;;11.10;99.90;;;;;;5002502;28;20044;-65
2023/03/22 01:44:07;;;;;;;15.50;9.98;;;11.00;99.90;;;;;;5002525;28;20036;-65
2023/03/22 01:46:32;;;;;;;21.88;10.77;;;11.00;99.90;;;;;;5000286;28;20081;-65
2023/03/22 01:49:01;;;;;;;15.23;10.23;;;11.00;99.90;;;;;;4996215;28;20066;-65
2023/03/22 01:51:28;;;;;;;15.77;10.57;;;10.90;99.90;;;;;;5006564;28;20029;-65
2023/03/22 01:54:33;;;;;;;16.40;10.63;;;11.00;99.90;;;;;;4998736;28;20795;-65
2023/03/22 01:57:03;;;;;;;20.55;11.85;;;11.00;99.90;;;;;;4999609;28;20446;-64
2023/03/22 01:59:37;;;;;;;23.13;12.05;;;11.00;99.90;;;;;;5008553;28;20034;-65
2023/03/22 02:02:18;;;;;;;19.73;12.63;;;11.00;99.90;;;;;;5004290;28;20054;-64
2023/03/22 02:04:50;;;;;;;19.92;11.98;;;10.90;99.90;;;;;;5004220;28;20037;-65
2023/03/22 02:07:24;;;;;;;19.40;10.52;;;10.90;99.90;;;;;;5008721;28;20678;-65
2023/03/22 02:09:51;;;;;;;17.63;10.77;;;10.90;99.90;;;;;;5005415;28;20118;-65
2023/03/22 02:12:37;;;;;;;18.25;11.15;;;10.80;99.90;;;;;;5006669;28;20112;-65
2023/03/22 02:15:41;;;;;;;15.63;9.98;;;10.90;99.90;;;;;;5003129;28;20042;-65
2023/03/22 02:18:38;;;;;;;15.93;9.93;;;10.90;99.90;;;;;;5002055;28;20813;-65
2023/03/22 02:21:28;;;;;;;16.77;10.30;;;10.90;99.90;;;;;;4996182;28;20089;-65
2023/03/22 02:24:09;;;;;;;16.52;9.65;;;10.90;99.90;;;;;;5004856;28;20026;-65
2023/03/22 02:27:32;;;;;;;13.77;8.73;;;10.90;99.90;;;;;;4996024;28;20037;-65
2023/03/22 02:30:18;;;;;;;10.82;7.53;;;10.90;99.90;;;;;;4998221;28;20036;-65
2023/03/22 02:33:13;;;;;;;;;;;10.90;99.90;;;;;;5010914;28;20041;-65
2023/03/22 02:36:07;;;;;;;13.82;9.88;;;10.90;99.90;;;;;;4947114;28;19914;-65
2023/03/22 02:39:03;;;;;;;12.25;8.40;;;11.00;99.90;;;;;;5001083;28;20030;-65
2023/03/22 02:41:36;;;;;;;13.63;8.88;;;11.00;99.90;;;;;;5006640;28;20029;-65
2023/03/22 02:44:32;;;;;;;13.02;9.10;;;11.00;99.90;;;;;;5005563;28;20064;-65
2023/03/22 02:47:01;;;;;;;13.82;8.90;;;11.00;99.90;;;;;;5006144;28;20080;-65
2023/03/22 02:49:33;;;;;;;19.27;10.23;;;11.00;99.90;;;;;;5009995;28;20080;-65
2023/03/22 02:52:16;;;;;;;16.30;10.10;;;10.90;99.90;;;;;;5004969;28;20050;-65
2023/03/22 02:54:54;;;;;;;18.30;10.32;;;10.80;99.90;;;;;;5007613;28;20065;-65
2023/03/22 02:57:31;;;;;;;19.30;11.18;;;10.80;99.90;;;;;;5010281;28;20041;-65
2023/03/22 02:59:59;;;;;;;18.17;11.27;;;10.70;99.90;;;;;;5002128;28;20030;-65
2023/03/22 03:02:26;;;;;;;16.65;10.68;;;10.60;99.90;;;;;;4998337;28;20851;-65
2023/03/22 03:04:54;;;;;;;14.73;9.10;;;10.50;99.90;;;;;;5005033;28;20052;-65
2023/03/22 03:07:24;;;;;;;16.98;11.05;;;10.50;99.90;;;;;;5003626;28;20156;-65
2023/03/22 03:09:51;;;;;;;16.45;10.73;;;10.60;99.90;;;;;;5008377;28;20026;-65
2023/03/22 03:12:20;;;;;;;19.02;10.48;;;10.50;99.90;;;;;;5006319;28;20034;-65
2023/03/22 03:14:46;;;;;;;14.27;9.45;;;10.60;99.90;;;;;;5004302;28;20018;-65
2023/03/22 03:17:35;;;;;;;16.40;8.85;;;10.60;99.90;;;;;;4998472;28;20128;-64
2023/03/22 03:20:20;;;;;;;14.77;9.60;;;10.70;99.90;;;;;;4994638;28;20399;-64
2023/03/22 03:22:52;;;;;;;15.07;9.63;;;10.70;99.90;;;;;;4993921;28;20026;-65
2023/03/22 03:25:37;;;;;;;15.35;9.82;;;10.80;99.90;;;;;;4999617;28;20693;-65
2023/03/22 03:28:29;;;;;;;13.98;8.73;;;10.80;99.90;;;;;;4995210;28;20033;-65
2023/03/22 03:31:19;;;;;;;15.20;9.65;;;10.80;99.90;;;;;;5001788;28;20065;-66
2023/03/22 03:34:11;;;;;;;14.38;10.02;;;10.80;99.90;;;;;;4996466;28;20049;-64
2023/03/22 03:36:41;;;;;;;19.58;9.57;;;10.80;99.90;;;;;;4994489;28;20034;-66
2023/03/22 03:39:12;;;;;;;17.98;9.73;;;10.90;99.90;;;;;;4998858;28;20437;-66
2023/03/22 03:41:41;;;;;;;17.63;10.65;;;10.90;99.90;;;;;;5002515;28;20033;-66
2023/03/22 03:44:07;;;;;;;16.17;9.18;;;10.90;99.90;;;;;;4997647;28;20038;-64
2023/03/22 03:46:33;;;;;;;21.42;11.13;;;10.90;99.90;;;;;;5001821;28;20059;-66
2023/03/22 03:49:01;;;;;;;15.40;8.65;;;10.90;99.90;;;;;;5000883;28;20037;-64
2023/03/22 03:51:28;;;;;;;17.15;9.70;;;11.00;99.90;;;;;;5002853;28;20712;-66
2023/03/22 03:53:54;;;;;;;17.00;10.43;;;10.90;99.90;;;;;;4996523;28;20022;-64
2023/03/22 03:56:21;;;;;;;15.27;10.07;;;11.00;99.90;;;;;;5005288;28;20520;-65
2023/03/22 03:58:48;;;;;;;17.05;9.85;;;11.00;99.90;;;;;;4998507;28;20025;-66
2023/03/22 04:01:18;;;;;;;13.40;8.38;;;11.00;99.90;;;;;;4996468;28;20065;-65
2023/03/22 04:04:02;;;;;;;16.83;10.80;;;11.00;99.90;;;;;;4998799;28;20521;-66
2023/03/22 04:06:43;;;;;;;15.38;9.85;;;11.00;99.90;;;;;;5001888;28;20052;-66
2023/03/22 04:09:14;;;;;;;16.13;10.00;;;11.00;99.90;;;;;;5006889;28;20485;-65
2023/03/22 04:11:44;;;;;;;15.68;9.05;;;11.00;99.90;;;;;;5002755;28;20486;-66
2023/03/22 04:14:11;;;;;;;18.42;10.20;;;11.00;99.90;;;;;;5015194;28;20107;-66
2023/03/22 04:16:37;;;;;;;14.65;9.60;;;11.00;99.90;;;;;;5003710;28;20041;-66
2023/03/22 04:19:04;;;;;;;14.13;9.35;;;10.90;99.90;;;;;;4980311;28;20073;-66
2023/03/22 04:21:31;;;;;;;14.60;9.10;;;10.90;99.90;;;;;;5002949;28;20494;-66
2023/03/22 04:23:59;;;;;;;16.75;10.07;;;10.90;99.90;;;;;;4995972;28;20641;-66
2023/03/22 04:26:28;;;;;;;16.23;9.70;;;10.90;99.90;;;;;;4999620;28;20741;-65
2023/03/22 04:29:08;;;;;;;16.63;10.60;;;10.90;99.90;;;;;;4995962;28;20454;-65
2023/03/22 04:31:38;;;;;;;14.93;9.25;;;10.90;99.90;;;;;;4997440;28;20041;-65
2023/03/22 04:34:18;;;;;;;16.55;9.70;;;10.90;99.90;;;;;;4998611;28;20033;-65
2023/03/22 04:36:56;;;;;;;15.60;8.50;;;10.90;99.90;;;;;;4999221;28;20087;-66
2023/03/22 04:39:33;;;;;;;13.20;9.00;;;10.90;99.90;;;;;;5001660;28;20398;-65
2023/03/22 04:42:19;;;;;;;16.52;8.93;;;10.90;99.90;;;;;;4995676;28;20156;-66
2023/03/22 04:44:47;;;;;;;12.13;8.25;;;11.00;99.90;;;;;;5000114;28;20033;-66
2023/03/22 04:47:13;;;;;;;18.02;9.70;;;11.00;99.90;;;;;;5015808;28;20044;-65
2023/03/22 04:49:39;;;;;;;14.05;9.02;;;11.00;99.90;;;;;;4999701;28;20033;-66
2023/03/22 04:52:06;;;;;;;14.35;9.15;;;11.00;99.90;;;;;;4999977;28;20827;-66
2023/03/22 04:54:34;;;;;;;14.25;8.85;;;11.00;99.90;;;;;;4995707;28;20728;-66
2023/03/22 04:57:01;;;;;;;14.98;9.10;;;11.00;99.90;;;;;;5004552;28;20028;-66
2023/03/22 04:59:30;;;;;;;13.77;9.07;;;10.90;99.90;;;;;;5001596;28;20038;-66
2023/03/22 05:01:58;;;;;;;13.38;8.50;;;10.90;99.90;;;;;;5000382;28;20410;-66
2023/03/22 05:04:26;;;;;;;14.75;8.88;;;10.80;99.90;;;;;;5006841;28;20042;-66
2023/03/22 05:06:59;;;;;;;19.67;10.15;;;10.90;99.90;;;;;;5005066;28;20026;-66
2023/03/22 05:09:32;;;;;;;16.05;10.18;;;10.90;99.90;;;;;;5011444;28;20037;-66
2023/03/22 05:11:58;;;;;;;13.55;8.25;;;10.80;99.90;;;;;;5007624;28;20075;-66
2023/03/22 05:14:37;;;;;;;14.27;9.45;;;10.80;99.90;;;;;;5003181;28;20854;-66
2023/03/22 05:17:05;;;;;;;14.98;9.10;;;10.80;99.90;;;;;;5005355;28;20033;-66
2023/03/22 05:19:34;;;;;;;17.77;10.10;;;10.80;99.90;;;;;;5007101;28;20079;-66
2023/03/22 05:22:00;;;;;;;19.08;9.60;;;10.80;99.90;;;;;;5015061;28;20662;-66
2023/03/22 05:24:40;;;;;;;21.08;10.57;;;10.70;99.90;;;;;;5003014;28;20029;-66
2023/03/22 05:27:13;;;;;;;14.95;9.38;;;10.70;99.90;;;;;;5004822;28;20055;-66
2023/03/22 05:29:43;;;;;;;17.73;9.23;;;10.70;99.90;;;;;;5003806;28;20069;-66
2023/03/22 05:32:17;;;;;;;21.65;10.52;;;10.70;99.90;;;;;;5006364;28;20051;-66
2023/03/22 05:34:47;;;;;;;18.73;9.82;;;10.80;99.90;;;;;;5007032;28;20022;-66
2023/03/22 05:37:32;;;;;;;19.38;9.63;;;10.70;99.90;;;;;;5007270;28;20555;-65
2023/03/22 05:39:58;;;;;;;14.48;9.07;;;10.70;99.90;;;;;;5008673;28;20026;-66
2023/03/22 05:42:33;;;;;;;18.00;9.95;;;10.70;99.90;;;;;;5000066;28;20030;-66
2023/03/22 05:45:02;;;;;;;17.70;10.90;;;10.60;99.90;;;;;;5006350;28;20249;-66
2023/03/22 05:47:28;;;;;;;19.13;10.52;;;10.50;99.90;;;;;;5009305;28;20034;-66
2023/03/22 05:50:01;;;;;;;20.13;10.73;;;10.60;99.90;;;;;;4991213;28;20030;-66
2023/03/22 05:52:29;;;;;;;17.73;10.10;;;10.60;99.90;;;;;;5008432;28;20042;-67
2023/03/22 05:55:18;;;;;;;16.13;10.10;;;10.60;99.90;;;;;;5006098;28;20037;-67
2023/03/22 05:57:46;;;;;;;17.80;9.98;;;10.70;99.90;;;;;;5015029;28;20478;-65
2023/03/22 06:00:15;;;;;;;18.08;10.27;;;10.70;99.90;;;;;;5003433;28;20038;-66
2023/03/22 06:03:02;;;;;;;16.58;9.70;;;10.60;99.90;;;;;;4993089;28;20036;-66
2023/03/22 06:05:35;;;;;;;17.98;9.98;;;10.60;99.90;;;;;;5007579;28;20079;-66
2023/03/22 06:08:01;;;;;;;18.23;10.30;;;10.70;99.90;;;;;;5010657;28;20025;-66
2023/03/22 06:10:27;;;;;;;18.05;9.70;;;10.60;99.90;;;;;;5007974;28;20120;-66
2023/03/22 06:12:54;;;;;;;16.33;9.88;;;10.50;99.90;;;;;;5003077;28;20029;-66
2023/03/22 06:15:26;;;;;;;20.35;9.73;;;10.50;99.90;;;;;;5003947;28;20040;-66
2023/03/22 06:18:14;;;;;;;17.02;9.68;;;10.60;99.90;;;;;;5008423;28;20041;-66
2023/03/22 06:20:44;;;;;;;15.65;9.68;;;10.60;99.90;;;;;;5003104;28;20076;-65
2023/03/22 06:23:16;;;;;;;19.27;9.48;;;10.60;99.90;;;;;;5006676;28;20034;-66
2023/03/22 06:25:44;;;;;;;16.75;10.07;;;10.70;99.90;;;;;;5002026;28;20037;-66
2023/03/22 06:28:11;;;;;;;21.00;10.80;;;10.70;99.90;;;;;;5005774;28;20033;-66
2023/03/22 06:30:39;;;;;;;17.85;10.48;;;10.60;99.90;;;;;;5009092;28;20034;-66
2023/03/22 06:33:13;;;;;;;20.60;10.43;;;10.60;99.90;;;;;;5006164;28;20083;-65
2023/03/22 06:35:43;;;;;;;13.35;8.50;;;10.60;99.90;;;;;;5001972;28;20029;-65
2023/03/22 06:38:13;;;;;;;16.73;9.95;;;10.70;99.90;;;;;;5010975;28;20244;-66
2023/03/22 06:40:39;;;;;;;17.40;10.27;;;10.90;99.90;;;;;;5004638;28;20121;-66
2023/03/22 06:43:05;;;;;;;16.92;9.88;;;10.90;99.90;;;;;;4986955;28;20041;-66
2023/03/22 06:45:32;;;;;;;14.95;9.50;;;10.90;99.90;;;;;;5001324;28;20776;-65
2023/03/22 06:47:59;;;;;;;15.85;9.82;;;10.90;99.90;;;;;;4986680;28;20129;-66
2023/03/22 06:50:51;;;;;;;17.33;10.45;;;11.00;99.90;;;;;;5016645;28;20046;-66
2023/03/22 06:53:24;;;;;;;15.10;9.27;;;11.10;99.90;;;;;;5000750;28;20124;-66
2023/03/22 06:55:50;;;;;;;15.10;9.98;;;11.10;99.90;;;;;;5001438;28;20040;-66
2023/03/22 06:58:18;;;;;;;15.68;9.63;;;11.20;99.90;;;;;;5005458;28;20087;-66
2023/03/22 07:00:44;;;;;;;16.10;9.82;;;11.30;99.90;;;;;;5003069;28;20061;-66
2023/03/22 07:03:11;;;;;;;17.10;9.57;;;11.30;99.90;;;;;;5005059;28;20035;-65
2023/03/22 07:05:43;;;;;;;16.27;10.10;;;11.40;99.90;;;;;;5010021;28;20683;-65
2023/03/22 07:08:09;;;;;;;17.30;9.38;;;11.40;99.90;;;;;;5003659;28;20042;-66
2023/03/22 07:10:42;;;;;;;14.27;8.55;;;11.40;99.90;;;;;;4986775;28;20108;-66
2023/03/22 07:13:09;;;;;;;15.68;9.55;;;11.50;99.90;;;;;;5005998;28;20042;-66
2023/03/22 07:15:36;;;;;;;14.60;9.40;;;11.60;99.90;;;;;;5004178;28;20029;-66
2023/03/22 07:18:07;;;;;;;15.23;9.02;;;11.70;99.90;;;;;;5009512;28;20204;-66
2023/03/22 07:20:37;;;;;;;20.40;10.35;;;11.90;99.90;;;;;;5008927;28;20044;-66
2023/03/22 07:23:03;;;;;;;15.57;9.43;;;12.00;99.90;;;;;;5006855;28;20034;-67
2023/03/22 07:25:33;;;;;;;15.23;9.02;;;12.10;99.90;;;;;;5003644;28;20037;-67
2023/03/22 07:28:14;;;;;;;21.42;10.05;;;12.20;99.90;;;;;;5009225;28;20042;-66
2023/03/22 07:30:40;;;;;;;16.40;9.43;;;12.20;99.90;;;;;;5017246;28;20073;-66
2023/03/22 07:33:09;;;;;;;15.25;9.20;;;12.20;99.90;;;;;;5011995;28;20477;-66
2023/03/22 07:35:36;;;;;;;14.10;8.75;;;12.30;99.90;;;;;;5009607;28;20038;-66
2023/03/22 07:38:04;;;;;;;15.73;9.60;;;12.40;99.90;;;;;;5014030;28;20028;-66
2023/03/22 07:40:31;;;;;;;13.45;8.18;;;12.50;99.90;;;;;;5004502;28;20420;-66
2023/03/22 07:42:57;;;;;;;12.35;8.05;;;12.50;99.90;;;;;;5002401;28;20484;-66
2023/03/22 07:45:53;;;;;;;15.27;9.48;;;12.50;99.90;;;;;;5008493;28;20034;-66
2023/03/22 07:48:38;;;;;;;14.48;8.95;;;12.60;99.90;;;;;;5014155;28;20184;-66
2023/03/22 07:51:22;;;;;;;12.23;7.82;;;12.60;99.90;;;;;;4997873;28;20046;-66
2023/03/22 07:53:49;;;;;;;13.90;8.00;;;12.70;99.90;;;;;;4996655;28;20414;-66
2023/03/22 07:56:14;;;;;;;14.50;9.07;;;12.90;99.90;;;;;;5011425;28;20057;-66
2023/03/22 07:58:40;;;;;;;13.07;8.73;;;13.00;99.90;;;;;;5002694;28;20133;-66
2023/03/22 08:01:07;;;;;;;15.07;9.05;;;13.10;99.90;;;;;;5004738;28;20677;-66
2023/03/22 08:04:00;;;;;;;14.23;8.23;;;13.00;99.90;;;;;;5003938;28;20036;-66
2023/03/22 08:06:41;;;;;;;15.68;8.25;;;13.10;99.90;;;;;;5006141;28;20084;-66
2023/03/22 08:09:08;;;;;;;11.80;8.18;;;13.20;99.90;;;;;;5000732;28;20034;-66
2023/03/22 08:11:35;;;;;;;14.38;8.35;;;13.30;99.90;;;;;;5011017;28;20025;-66
2023/03/22 08:14:01;;;;;;;14.05;8.10;;;13.40;99.90;;;;;;5005450;28;20026;-66
2023/03/22 08:16:28;;;;;;;11.95;7.57;;;13.50;99.90;;;;;;5007315;28;20477;-66
2023/03/22 08:18:55;;;;;;;14.55;7.85;;;13.60;99.90;;;;;;5006776;28;20592;-66
2023/03/22 08:21:22;;;;;;;12.85;7.95;;;13.70;99.90;;;;;;5005271;28;20486;-66
2023/03/22 08:23:52;;;;;;;12.40;8.50;;;13.70;99.90;;;;;;5008638;28;20061;-66
2023/03/22 08:26:23;;;;;;;13.77;7.53;;;13.90;99.90;;;;;;5010103;28;20057;-66
2023/03/22 08:28:52;;;;;;;14.00;7.43;;;13.90;99.90;;;;;;5003005;28;20064;-65
2023/03/22 08:31:18;;;;;;;12.85;7.10;;;13.80;99.90;;;;;;5010622;28;20098;-65
2023/03/22 08:33:46;;;;;;;13.82;7.75;;;13.90;99.90;;;;;;5002316;28;20022;-66
2023/03/22 08:36:15;;;;;;;10.52;7.78;;;14.00;99.90;;;;;;5008670;28;20029;-66
2023/03/22 08:38:50;;;;;;;11.90;7.80;;;14.20;99.70;;;;;;5005506;28;20364;-66
2023/03/22 08:41:22;;;;;;;12.38;8.18;;;14.20;99.90;;;;;;5005330;28;20121;-66
2023/03/22 08:43:48;;;;;;;12.63;7.53;;;14.40;99.90;;;;;;5003993;28;20155;-66
2023/03/22 08:46:14;;;;;;;12.45;7.25;;;14.80;99.00;;;;;;5004234;28;20779;-66
2023/03/22 08:48:40;;;;;;;11.65;7.50;;;15.10;98.50;;;;;;5002282;28;20041;-66
2023/03/22 08:51:20;;;;;;;13.43;7.22;;;15.60;97.50;;;;;;5003154;28;20127;-66
2023/03/22 08:54:06;;;;;;;14.77;7.72;;;15.50;95.70;;;;;;4997754;28;20030;-66
2023/03/22 08:56:53;;;;;;;12.07;6.88;;;15.50;96.50;;;;;;5010274;28;20034;-66
2023/03/22 08:59:37;;;;;;;11.55;6.85;;;15.80;96.20;;;;;;5003956;28;20068;-66
2023/03/22 09:02:35;;;;;;;8.63;6.32;;;16.10;94.90;;;;;;5001369;28;20069;-66
2023/03/22 09:05:02;;;;;;;11.38;6.25;;;16.20;95.20;;;;;;4995409;28;20029;-66
2023/03/22 09:07:27;;;;;;;11.40;6.18;;;16.40;94.30;;;;;;5001826;28;20659;-66
2023/03/22 09:10:15;;;;;;;9.40;6.68;;;16.90;93.90;;;;;;5000805;28;20039;-66
2023/03/22 09:12:43;;;;;;;9.02;5.65;;;17.80;92.20;;;;;;5010498;28;20503;-66
2023/03/22 09:15:09;;;;;;;8.48;5.57;;;18.60;90.80;;;;;;5005847;28;20034;-66
2023/03/22 09:17:38;;;;;;;13.00;6.03;;;19.30;85.90;;;;;;5005477;28;20038;-66
2023/03/22 09:20:06;;;;;;;9.50;5.90;;;19.80;83.90;;;;;;5011798;28;20025;-66
2023/03/22 09:22:32;;;;;;;10.98;5.47;;;19.70;80.20;;;;;;5003472;28;20044;-66
2023/03/22 09:25:00;;;;;;;8.45;5.95;;;19.40;80.40;;;;;;5005997;28;20032;-67
2023/03/22 09:27:29;;;;;;;10.57;6.13;;;19.00;82.00;;;;;;5013640;28;20029;-67
2023/03/22 09:29:55;;;;;;;10.10;6.00;;;18.60;83.70;;;;;;5009233;28;20068;-66
2023/03/22 09:32:22;;;;;;;9.93;6.10;;;18.30;87.10;;;;;;5009993;28;20056;-66
2023/03/22 09:34:55;;;;;;;10.05;6.25;;;18.10;86.40;;;;;;4988915;28;20030;-67
2023/03/22 09:37:29;;;;;;;12.15;6.57;;;17.80;85.10;;;;;;5002696;28;20033;-67
2023/03/22 09:39:56;;;;;;;8.88;6.30;;;17.70;87.50;;;;;;5000752;28;20120;-66
2023/03/22 09:42:43;;;;;;;8.40;6.20;;;17.50;89.00;;;;;;5007341;28;20065;-67
2023/03/22 09:45:17;;;;;;;12.82;6.45;;;17.20;89.00;;;;;;5006668;28;20860;-66
2023/03/22 09:47:47;;;;;;;10.02;5.80;;;16.80;89.80;;;;;;5006628;28;20068;-66
2023/03/22 09:50:25;;;;;;;8.88;5.38;;;16.80;91.00;;;;;;5005055;28;20038;-66
2023/03/22 09:52:52;;;;;;;10.32;6.65;;;17.00;89.80;;;;;;4998404;28;20040;-65
2023/03/22 09:55:21;;;;;;;9.25;6.30;;;17.00;90.50;;;;;;5008642;28;20033;-65
2023/03/22 09:58:22;;;;;;;7.72;5.45;;;17.10;90.50;;;;;;5005741;28;20040;-65
2023/03/22 10:00:57;;;;;;;11.27;6.22;;;17.20;91.00;;;;;;4998928;28;20387;-66
2023/03/22 10:03:55;;;;;;;7.95;5.95;;;17.50;89.50;;;;;;5002673;28;20916;-66
2023/03/22 10:06:23;;;;;;;8.57;5.60;;;17.80;89.30;;;;;;5000533;28;20105;-66
2023/03/22 10:08:59;;;;;;;9.18;5.57;;;18.40;86.60;;;;;;5003905;28;20033;-65
2023/03/22 10:11:48;;;;;;;9.20;5.65;;;18.70;85.10;;;;;;5001890;28;20037;-66
2023/03/22 10:14:39;;;;;;;8.93;5.10;;;19.00;84.50;;;;;;5001880;28;20053;-66
2023/03/22 10:17:15;;;;;;;8.52;5.68;;;19.60;81.00;;;;;;5001526;28;20034;-65
2023/03/22 10:20:07;;;;;;;8.20;5.22;;;19.90;77.10;;;;;;5004662;28;20038;-66
2023/03/22 10:22:42;;;;;;;8.48;5.75;;;20.10;77.20;;;;;;5003686;28;20033;-65
2023/03/22 10:25:17;;;;;;;7.13;4.07;;;19.80;76.10;;;;;;5004813;28;20038;-65
2023/03/22 10:27:45;;;;;;;7.22;5.25;;;19.10;77.80;;;;;;4996300;28;20029;-65
2023/03/22 10:30:28;;;;;;;7.88;5.15;;;18.60;79.50;;;;;;5001700;28;20034;-65
2023/03/22 10:33:01;;;;;;;6.75;5.68;;;18.20;81.30;;;;;;4998328;28;20033;-65
2023/03/22 10:35:28;;;;;;;8.85;4.68;;;17.70;82.20;;;;;;5000636;28;20113;-66
2023/03/22 10:37:57;;;;;;;9.57;4.97;;;17.50;84.80;;;;;;5002849;28;20536;-65
2023/03/22 10:40:31;;;;;;;8.00;5.50;;;17.40;83.10;;;;;;5005552;28;20029;-65
2023/03/22 10:43:06;;;;;;;16.33;5.03;;;17.40;84.70;;;;;;5006400;28;20417;-65
2023/03/22 10:45:34;;;;;;;6.70;4.80;;;17.70;82.50;;;;;;5000786;28;20915;-66
2023/03/22 10:48:06;;;;;;;6.18;4.40;;;17.70;82.60;;;;;;5010464;28;20130;-66
2023/03/22 10:50:35;;;;;;;6.60;3.97;;;17.70;83.30;;;;;;5005491;28;20037;-65
2023/03/22 10:53:22;;;;;;;8.40;4.50;;;17.70;82.10;;;;;;5005029;28;20168;-66
2023/03/22 10:55:47;;;;;;;;;;;17.90;82.00;;;;;;5008573;28;20104;-66
2023/03/22 10:58:22;;;;;;;7.37;4.27;;;18.30;80.00;;;;;;5014416;28;20732;-66
2023/03/22 11:00:50;;;;;;;5.47;3.42;;;18.20;80.30;;;;;;5001518;28;20510;-65
2023/03/22 11:03:38;;;;;;;4.03;2.60;;;17.90;76.40;;;;;;5016341;28;20108;-65
2023/03/22 11:06:17;;;;;;;4.30;3.00;;;17.60;80.10;;;;;;5003562;28;20042;-65
2023/03/22 11:09:12;;;;;;;5.85;3.20;;;17.60;77.80;;;;;;4999590;28;20130;-65
2023/03/22 11:11:52;;;;;;;5.55;3.20;;;17.30;80.20;;;;;;5001110;28;20087;-65
2023/03/22 11:14:31;;;;;;;4.20;2.67;;;17.10;81.50;;;;;;5010603;28;20033;-65
2023/03/22 11:17:21;;;;;;;5.80;3.50;;;17.20;79.70;;;;;;5001688;28;20030;-65
2023/03/22 11:19:53;;;;;;;5.50;3.20;;;17.30;80.30;;;;;;5004506;28;20033;-66
2023/03/22 11:22:38;;;;;;;5.20;3.28;;;17.30;80.80;;;;;;5010095;28;20040;-68
2023/03/22 11:25:34;;;;;;;6.72;3.50;;;17.20;79.30;;;;;;5006976;28;20108;-67
2023/03/22 11:28:02;;;;;;;6.50;3.00;;;17.10;80.80;;;;;;5006493;28;20053;-66
2023/03/22 11:30:30;;;;;;;7.53;3.58;;;17.00;80.60;;;;;;5003330;28;20022;-65
2023/03/22 11:33:19;;;;;;;5.85;2.85;;;16.90;82.10;;;;;;5006972;28;20117;-66
2023/03/22 11:35:52;;;;;;;4.88;3.15;;;16.90;80.80;;;;;;4999947;28;20631;-66
2023/03/22 11:38:38;;;;;;;4.82;3.28;;;17.00;80.50;;;;;;5003840;28;20133;-66
2023/03/22 11:41:17;;;;;;;6.63;3.73;;;17.20;81.00;;;;;;5005641;28;20030;-66
2023/03/22 11:43:47;;;;;;;3.92;2.92;;;17.00;80.50;;;;;;5002522;28;20035;-66
2023/03/22 11:46:18;;;;;;;4.68;3.42;;;16.90;80.20;;;;;;5006558;28;20129;-66
2023/03/22 11:48:46;;;;;;;5.53;3.28;;;17.20;81.50;;;;;;5005002;28;20934;-65
2023/03/22 11:51:15;;;;;;;5.85;3.45;;;17.30;79.90;;;;;;5009829;28;20140;-66
2023/03/22 11:53:45;;;;;;;5.30;3.90;;;17.40;81.10;;;;;;5011297;28;20037;-65
2023/03/22 11:56:16;;;;;;;5.90;3.35;;;17.40;80.60;;;;;;5012566;28;20049;-65
2023/03/22 11:59:02;;;;;;;5.05;3.47;;;17.40;81.10;;;;;;5010567;28;20053;-65
2023/03/22 12:02:00;;;;;;;6.10;3.17;;;17.50;82.20;;;;;;5019544;28;20045;-65
2023/03/22 12:04:32;;;;;;;6.53;3.35;;;17.60;80.60;;;;;;5012957;28;20490;-65
2023/03/22 12:07:00;;;;;;;7.00;3.60;;;17.70;80.20;;;;;;5010474;28;20026;-66
2023/03/22 12:09:51;;;;;;;5.10;3.28;;;17.40;78.90;;;;;;5001604;28;20037;-65
2023/03/22 12:12:23;;;;;;;3.83;3.13;;;17.50;80.20;;;;;;5009367;28;20030;-65
2023/03/22 12:14:59;;;;;;;3.55;2.85;;;17.20;81.50;;;;;;5001504;28;20077;-65
2023/03/22 12:17:35;;;;;;;5.18;3.15;;;17.20;81.60;;;;;;5009947;28;20530;-65
2023/03/22 12:20:09;;;;;;;8.98;3.22;;;17.30;81.00;;;;;;5002673;28;20035;-66
2023/03/22 12:22:40;;;;;;;8.45;3.30;;;17.40;81.90;;;;;;5002939;28;20038;-65
2023/03/22 12:25:19;;;;;;;5.97;3.47;;;17.50;83.20;;;;;;5004925;28;20037;-64
2023/03/22 12:27:48;;;;;;;6.22;3.17;;;17.50;80.90;;;;;;5003754;28;20498;-64
2023/03/22 12:30:24;;;;;;;5.05;3.35;;;17.50;81.20;;;;;;5009708;28;20081;-65
2023/03/22 12:33:00;;;;;;;6.65;3.33;;;17.40;83.40;;;;;;5011346;28;20584;-64
2023/03/22 12:35:30;;;;;;;5.28;3.10;;;17.30;82.00;;;;;;5011118;28;20153;-65
2023/03/22 12:38:00;;;;;;;4.35;3.08;;;17.30;80.40;;;;;;5013755;28;20034;-65
2023/03/22 12:40:36;;;;;;;6.10;3.22;;;17.30;82.00;;;;;;5002729;28;20125;-65
2023/03/22 12:43:08;;;;;;;;;;;17.30;82.50;;;;;;5015416;28;20072;-64
2023/03/22 12:45:40;;;;;;;4.43;2.33;;;17.40;80.80;;;;;;5012706;28;19913;-64
2023/03/22 12:48:12;;;;;;;4.80;2.40;;;17.40;78.10;;;;;;5014835;28;20087;-65
2023/03/22 12:51:05;;;;;;;3.78;2.55;;;17.30;81.30;;;;;;5008172;28;20751;-65
2023/03/22 12:53:41;;;;;;;5.68;2.20;;;17.20;79.40;;;;;;5007091;28;20022;-72
2023/03/22 12:56:14;;;;;;;6.70;2.80;;;17.30;81.30;;;;;;5014957;28;20053;-65
2023/03/22 12:58:44;;;;;;;4.60;2.42;;;17.30;80.10;;;;;;4999198;28;20081;-65
2023/03/22 13:01:28;;;;;;;6.90;2.92;;;17.30;81.70;;;;;;5011425;28;20405;-65
2023/03/22 13:03:56;;;;;;;5.30;2.58;;;17.40;81.00;;;;;;5007734;28;20441;-64
2023/03/22 13:06:33;;;;;;;5.47;2.40;;;17.40;78.80;;;;;;4998511;28;20049;-64
2023/03/22 13:09:18;;;;;;;5.18;2.58;;;17.40;77.20;;;;;;5006011;28;20695;-64